Annville, Kentucky
Current Conditions -  °F | °C
As of 4:11 AM on Thursday 27 Nov 2014 (Local Time) from KLOZ Reporting Station
Light Snow Light Snow  
Wind Chill: 34°   Ceiling: 400
Heat Index: 34°   Visibility: 1.7mi
Dew Point: 31°   Wind: 3mph
Humidity: 89%   Direction: 310°NW
Pressure: 30.03"   Gusts: NA
Location:  37.32°N, 83.97°W
Report Text: KLOZ 270911Z AUTO 31003KT 1 3/4SM -SN BR OVC004 01/M01 A3003 RMK AO2 P0001 T00111006
Loading
Personal Weather Stations






























Interactive Weather Map New forecast layout! Learn more

10-Day Weather Forecast

Advertisements
Track Severe Weather on mobile